createdAt,value
2018-02-14T00:00:37.671Z,32.1
2018-02-14T00:01:38.313Z,32.2
2018-02-14T00:02:38.954Z,32.1
2018-02-14T00:03:39.596Z,32.1
2018-02-14T00:04:40.240Z,32.1
2018-02-14T00:05:40.895Z,32.4
2018-02-14T00:06:41.517Z,32.1
2018-02-14T00:07:42.158Z,32.0
2018-02-14T00:08:42.800Z,31.9
2018-02-14T00:09:43.439Z,31.9
2018-02-14T00:10:44.082Z,31.9
2018-02-14T00:11:44.724Z,32.3
2018-02-14T00:12:45.366Z,32.3
2018-02-14T00:13:46.308Z,32.0
2018-02-14T00:14:46.953Z,32.1
2018-02-14T00:15:47.592Z,32.3
2018-02-14T00:16:48.236Z,32.0
2018-02-14T00:17:48.877Z,32.0
2018-02-14T00:18:49.522Z,32.0
2018-02-14T00:19:50.163Z,32.0
2018-02-14T00:20:50.806Z,32.0
2018-02-14T00:21:51.447Z,32.3
2018-02-14T00:22:52.088Z,31.9
2018-02-14T00:23:52.731Z,32.3
2018-02-14T00:24:53.374Z,32.1
2018-02-14T00:25:54.017Z,32.1
2018-02-14T00:26:54.658Z,32.1
2018-02-14T00:27:55.300Z,32.1
2018-02-14T00:28:56.198Z,32.0
2018-02-14T00:29:56.840Z,32.3
2018-02-14T00:30:57.482Z,32.3
2018-02-14T00:31:58.125Z,32.1
2018-02-14T00:32:58.769Z,32.3
2018-02-14T00:33:59.409Z,32.2
2018-02-14T00:35:00.053Z,32.3
2018-02-14T00:36:00.693Z,32.1
2018-02-14T00:37:01.337Z,31.9
2018-02-14T00:38:01.979Z,32.1
2018-02-14T00:39:02.621Z,32.1
2018-02-14T00:40:03.266Z,32.2
2018-02-14T00:41:03.906Z,32.2
2018-02-14T00:42:04.548Z,32.1
2018-02-14T00:43:05.196Z,32.1
2018-02-14T00:44:05.939Z,32.1
2018-02-14T00:45:06.579Z,32.2
2018-02-14T00:46:07.221Z,32.1
2018-02-14T00:47:07.863Z,32.2
2018-02-14T00:48:08.507Z,32.1
2018-02-14T00:49:09.152Z,32.2
2018-02-14T00:50:09.798Z,32.2
2018-02-14T00:51:10.439Z,32.2
2018-02-14T00:52:11.126Z,32.2
2018-02-14T00:53:11.766Z,32.1
2018-02-14T00:54:12.409Z,32.1
2018-02-14T00:55:13.050Z,32.1
2018-02-14T00:56:13.695Z,32.2
2018-02-14T00:57:14.334Z,32.1
2018-02-14T00:58:14.977Z,32.2
2018-02-14T00:59:15.769Z,32.3
2018-02-14T01:00:16.410Z,32.1
2018-02-14T01:01:17.053Z,32.2
2018-02-14T01:02:17.696Z,32.3
2018-02-14T01:03:18.339Z,32.3
2018-02-14T01:04:18.979Z,32.1
2018-02-14T01:05:19.621Z,32.3
2018-02-14T01:06:20.264Z,32.3
2018-02-14T01:07:20.908Z,32.3
2018-02-14T01:08:21.551Z,32.4
2018-02-14T01:09:22.198Z,32.2
2018-02-14T01:10:22.839Z,32.2
2018-02-14T01:11:23.482Z,32.2
2018-02-14T01:12:24.122Z,32.2
2018-02-14T01:13:24.765Z,32.3
2018-02-14T01:14:25.658Z,32.2
2018-02-14T01:15:26.296Z,32.5
2018-02-14T01:16:26.935Z,32.3
2018-02-14T01:17:27.576Z,32.4
2018-02-14T01:18:28.217Z,32.5
2018-02-14T01:19:28.859Z,32.4
2018-02-14T01:20:29.503Z,32.3
2018-02-14T01:21:30.141Z,32.3
2018-02-14T01:22:30.782Z,32.5
2018-02-14T01:23:31.422Z,32.4
2018-02-14T01:24:32.066Z,32.5
2018-02-14T01:25:32.706Z,32.5
2018-02-14T01:26:33.352Z,32.5
2018-02-14T01:27:33.991Z,32.3
2018-02-14T01:28:34.669Z,32.5
2018-02-14T01:29:35.376Z,32.4
2018-02-14T01:30:36.019Z,32.4
2018-02-14T01:31:36.666Z,32.5
2018-02-14T01:32:37.311Z,32.5
2018-02-14T01:33:37.953Z,32.4
2018-02-14T01:34:38.593Z,32.4
2018-02-14T01:35:39.238Z,32.2
2018-02-14T01:36:39.884Z,32.4
2018-02-14T01:37:40.526Z,32.4
2018-02-14T01:38:41.166Z,32.5
2018-02-14T01:39:41.809Z,32.5
2018-02-14T01:40:42.450Z,32.4
2018-02-14T01:41:43.091Z,32.4
2018-02-14T01:42:43.733Z,32.6
2018-02-14T01:43:44.374Z,32.5
2018-02-14T01:44:45.316Z,32.4
2018-02-14T01:45:45.958Z,32.4
2018-02-14T01:46:46.598Z,32.5
2018-02-14T01:47:47.241Z,32.6
2018-02-14T01:48:47.883Z,32.5
2018-02-14T01:49:48.526Z,32.5
2018-02-14T01:50:49.171Z,32.4
2018-02-14T01:51:49.819Z,32.5
2018-02-14T01:52:50.451Z,32.5
2018-02-14T01:53:51.096Z,32.5
2018-02-14T01:54:51.749Z,32.5
2018-02-14T01:55:52.386Z,32.5
2018-02-14T01:56:53.026Z,32.4
2018-02-14T01:57:53.669Z,32.4
2018-02-14T01:58:54.310Z,32.4
2018-02-14T01:59:55.053Z,32.5
2018-02-14T02:00:55.696Z,32.5
2018-02-14T02:01:56.338Z,32.4
2018-02-14T02:02:56.982Z,32.4
2018-02-14T02:03:57.625Z,32.5
2018-02-14T02:04:58.274Z,32.5
2018-02-14T02:05:58.909Z,32.4
2018-02-14T02:06:59.551Z,32.4
2018-02-14T02:08:00.194Z,32.6
2018-02-14T02:09:00.838Z,32.4
2018-02-14T02:10:01.562Z,32.6
2018-02-14T02:11:02.171Z,32.4
2018-02-14T02:12:03.013Z,32.5
2018-02-14T02:13:03.656Z,32.7
2018-02-14T02:14:04.297Z,32.6
2018-02-14T02:15:04.940Z,32.4
2018-02-14T02:16:05.580Z,32.4
2018-02-14T02:17:06.220Z,32.6
2018-02-14T02:18:06.861Z,32.6
2018-02-14T02:19:07.503Z,32.6
2018-02-14T02:20:08.143Z,32.6
2018-02-14T02:21:08.784Z,32.6
2018-02-14T02:22:09.424Z,32.6
2018-02-14T02:23:10.066Z,32.5
2018-02-14T02:24:10.709Z,32.6
2018-02-14T02:25:11.353Z,32.6
2018-02-14T02:26:11.993Z,32.6
2018-02-14T02:27:12.633Z,32.7
2018-02-14T02:28:13.277Z,32.6
2018-02-14T02:29:13.919Z,32.6
2018-02-14T02:30:14.813Z,32.6
2018-02-14T02:31:15.454Z,32.5
2018-02-14T02:32:16.160Z,32.6
2018-02-14T02:33:16.803Z,32.5
2018-02-14T02:34:17.445Z,32.7
2018-02-14T02:35:18.087Z,32.7
2018-02-14T02:36:18.729Z,32.7
2018-02-14T02:37:19.370Z,32.6
2018-02-14T02:38:20.011Z,32.7
2018-02-14T02:39:20.655Z,32.6
2018-02-14T02:40:21.296Z,32.6
2018-02-14T02:41:21.939Z,32.7
2018-02-14T02:42:22.582Z,32.6
2018-02-14T02:43:23.226Z,32.7
2018-02-14T02:44:23.867Z,32.6
2018-02-14T02:45:24.509Z,32.8
2018-02-14T02:46:25.151Z,32.7
2018-02-14T02:47:25.795Z,32.8
2018-02-14T02:48:26.435Z,32.6
2018-02-14T02:49:27.077Z,32.7
2018-02-14T02:50:27.721Z,32.5
2018-02-14T02:51:28.363Z,32.9
2018-02-14T02:52:29.005Z,32.7
2018-02-14T02:53:29.648Z,32.8
2018-02-14T02:54:30.289Z,32.9
2018-02-14T02:55:30.934Z,32.8
2018-02-14T02:56:31.572Z,32.9
2018-02-14T02:57:32.214Z,32.8
2018-02-14T02:58:32.857Z,32.7
2018-02-14T02:59:33.500Z,32.8
2018-02-14T03:00:34.242Z,32.8
2018-02-14T03:01:34.882Z,32.4
2018-02-14T03:02:35.523Z,32.8
2018-02-14T03:03:36.164Z,32.8
2018-02-14T03:04:36.804Z,32.8
2018-02-14T03:05:37.446Z,32.8
2018-02-14T03:06:38.085Z,32.8
2018-02-14T03:07:38.726Z,32.8
2018-02-14T03:08:39.368Z,32.4
2018-02-14T03:09:40.011Z,32.9
2018-02-14T03:10:40.653Z,32.9
2018-02-14T03:11:41.295Z,32.9
2018-02-14T03:12:41.934Z,32.9
2018-02-14T03:13:42.578Z,33.0
2018-02-14T03:14:43.219Z,33.1
2018-02-14T03:15:43.962Z,32.8
2018-02-14T03:16:44.604Z,32.7
2018-02-14T03:17:45.246Z,32.6
2018-02-14T03:18:45.888Z,32.6
2018-02-14T03:19:46.529Z,32.5
2018-02-14T03:20:47.168Z,33.0
2018-02-14T03:21:47.809Z,32.6
2018-02-14T03:22:48.457Z,32.6
2018-02-14T03:23:49.098Z,32.6
2018-02-14T03:24:49.739Z,32.8
2018-02-14T03:25:50.382Z,32.8
2018-02-14T03:26:51.022Z,32.8
2018-02-14T03:27:51.661Z,32.8
2018-02-14T03:28:52.306Z,32.6
2018-02-14T03:29:52.953Z,32.5
2018-02-14T03:30:53.745Z,32.7
2018-02-14T03:31:54.388Z,32.6
2018-02-14T03:32:55.036Z,32.7
2018-02-14T03:33:55.678Z,32.6
2018-02-14T03:34:56.317Z,32.6
2018-02-14T03:35:56.959Z,32.8
2018-02-14T03:36:57.601Z,32.7
2018-02-14T03:37:58.244Z,32.8
2018-02-14T03:38:58.885Z,32.7
2018-02-14T03:39:59.528Z,32.7
2018-02-14T03:41:00.168Z,32.8
2018-02-14T03:42:00.810Z,32.7
2018-02-14T03:43:01.451Z,32.7
2018-02-14T03:44:02.094Z,32.7
2018-02-14T03:45:02.736Z,33.0
2018-02-14T03:46:03.481Z,32.6
2018-02-14T03:47:04.125Z,32.7
2018-02-14T03:48:04.767Z,32.8
2018-02-14T03:49:05.410Z,32.7
2018-02-14T03:50:06.051Z,32.8
2018-02-14T03:51:06.695Z,32.6
2018-02-14T03:52:07.362Z,32.9
2018-02-14T03:53:08.007Z,32.9
2018-02-14T03:54:08.645Z,32.8
2018-02-14T03:55:09.289Z,32.6
2018-02-14T03:56:09.931Z,32.8
2018-02-14T03:57:10.570Z,32.8
2018-02-14T03:58:11.213Z,32.7
2018-02-14T03:59:11.855Z,32.8
2018-02-14T04:00:12.497Z,32.8
2018-02-14T04:01:13.390Z,32.8
2018-02-14T04:02:14.032Z,32.8
2018-02-14T04:03:14.674Z,32.8
2018-02-14T04:04:15.312Z,32.8
2018-02-14T04:05:15.953Z,32.8
2018-02-14T04:06:16.594Z,32.9
2018-02-14T04:07:17.235Z,32.8
2018-02-14T04:08:17.874Z,32.9
2018-02-14T04:09:18.515Z,32.9
2018-02-14T04:10:19.156Z,32.8
2018-02-14T04:11:19.797Z,32.8
2018-02-14T04:12:20.461Z,32.9
2018-02-14T04:13:21.101Z,32.9
2018-02-14T04:14:21.744Z,32.9
2018-02-14T04:15:22.386Z,32.8
2018-02-14T04:16:23.278Z,32.9
2018-02-14T04:17:23.918Z,32.9
2018-02-14T04:18:24.560Z,32.9
2018-02-14T04:19:25.202Z,32.9
2018-02-14T04:20:25.844Z,32.9
2018-02-14T04:21:26.484Z,32.8
2018-02-14T04:22:27.125Z,33.0
2018-02-14T04:23:27.765Z,33.0
2018-02-14T04:24:28.407Z,32.8
2018-02-14T04:25:29.047Z,32.8
2018-02-14T04:26:29.686Z,33.0
2018-02-14T04:27:30.328Z,32.9
2018-02-14T04:28:30.968Z,32.9
2018-02-14T04:29:31.616Z,32.8
2018-02-14T04:30:32.260Z,32.9
2018-02-14T04:31:32.900Z,33.0
2018-02-14T04:32:33.541Z,32.9
2018-02-14T04:33:34.181Z,32.9
2018-02-14T04:34:34.822Z,32.8
2018-02-14T04:35:35.462Z,32.9
2018-02-14T04:36:36.101Z,32.8
2018-02-14T04:37:36.743Z,32.8
2018-02-14T04:38:37.384Z,32.9
2018-02-14T04:39:38.025Z,32.8
2018-02-14T04:40:38.668Z,32.9
2018-02-14T04:41:39.314Z,33.0
2018-02-14T04:42:39.957Z,33.1
2018-02-14T04:43:40.599Z,33.0
2018-02-14T04:44:41.239Z,33.1
2018-02-14T04:45:41.880Z,33.1
2018-02-14T04:46:42.771Z,32.9
2018-02-14T04:47:43.416Z,33.0
2018-02-14T04:48:44.056Z,33.1
2018-02-14T04:49:44.713Z,33.0
2018-02-14T04:50:45.341Z,33.1
2018-02-14T04:51:45.983Z,33.0
2018-02-14T04:52:46.625Z,33.2
2018-02-14T04:53:47.268Z,33.2
2018-02-14T04:54:47.909Z,33.1
2018-02-14T04:55:48.549Z,33.1
2018-02-14T04:56:49.190Z,33.1
2018-02-14T04:57:49.831Z,33.1
2018-02-14T04:58:50.474Z,33.1
2018-02-14T04:59:51.115Z,33.1
2018-02-14T05:00:51.757Z,33.1
2018-02-14T05:01:52.646Z,33.0
2018-02-14T05:02:53.290Z,33.2
2018-02-14T05:03:53.930Z,33.1
2018-02-14T05:04:54.572Z,33.1
2018-02-14T05:05:55.211Z,33.1
2018-02-14T05:06:55.854Z,33.1
2018-02-14T05:07:56.493Z,33.1
2018-02-14T05:08:57.137Z,33.1
2018-02-14T05:09:57.777Z,33.4
2018-02-14T05:10:58.422Z,33.3
2018-02-14T05:11:59.064Z,33.2
2018-02-14T05:12:59.701Z,33.1
2018-02-14T05:14:00.346Z,33.2
2018-02-14T05:15:00.992Z,33.3
2018-02-14T05:16:01.634Z,33.2
2018-02-14T05:17:02.375Z,33.4
2018-02-14T05:18:03.016Z,33.3
2018-02-14T05:19:03.658Z,32.9
2018-02-14T05:20:04.300Z,33.2
2018-02-14T05:21:04.940Z,33.0
2018-02-14T05:22:05.583Z,33.1
2018-02-14T05:23:06.222Z,33.2
2018-02-14T05:24:06.865Z,33.5
2018-02-14T05:25:07.506Z,33.3
2018-02-14T05:26:08.154Z,33.1
2018-02-14T05:27:08.789Z,33.1
2018-02-14T05:28:09.429Z,33.1
2018-02-14T05:29:10.070Z,33.2
2018-02-14T05:30:10.713Z,33.1
2018-02-14T05:31:11.350Z,33.1
2018-02-14T05:32:12.225Z,33.2
2018-02-14T05:33:12.866Z,33.2
2018-02-14T05:34:13.506Z,33.1
2018-02-14T05:35:14.147Z,33.2
2018-02-14T05:36:14.789Z,33.0
2018-02-14T05:37:15.435Z,33.1
2018-02-14T05:38:16.072Z,33.0
2018-02-14T05:39:16.713Z,33.0
2018-02-14T05:40:17.356Z,33.1
2018-02-14T05:41:17.996Z,33.0
2018-02-14T05:42:18.637Z,33.1
2018-02-14T05:43:19.279Z,33.2
2018-02-14T05:44:19.922Z,33.0
2018-02-14T05:45:20.566Z,33.1
2018-02-14T05:46:21.209Z,33.3
2018-02-14T05:47:22.049Z,33.2
2018-02-14T05:48:22.691Z,33.2
2018-02-14T05:49:23.330Z,33.1
2018-02-14T05:50:23.970Z,33.2
2018-02-14T05:51:24.613Z,33.2
2018-02-14T05:52:25.254Z,33.2
2018-02-14T05:53:25.895Z,33.2
2018-02-14T05:54:26.535Z,33.2
2018-02-14T05:55:27.176Z,33.1
2018-02-14T05:56:27.817Z,33.3
2018-02-14T05:57:28.463Z,33.2
2018-02-14T05:58:29.109Z,33.1
2018-02-14T05:59:29.744Z,33.2
2018-02-14T06:00:30.386Z,33.3
2018-02-14T06:01:31.027Z,33.1
2018-02-14T06:02:31.869Z,33.2
2018-02-14T06:03:32.509Z,33.1
2018-02-14T06:04:33.154Z,33.0
2018-02-14T06:05:33.800Z,33.1
2018-02-14T06:06:34.438Z,33.2
2018-02-14T06:07:35.078Z,33.1
2018-02-14T06:08:35.719Z,33.2
2018-02-14T06:09:36.360Z,33.1
2018-02-14T06:10:37.000Z,32.9
2018-02-14T06:11:37.640Z,32.8
2018-02-14T06:12:38.733Z,32.8
2018-02-14T06:13:39.375Z,32.8
2018-02-14T06:14:40.016Z,32.9
2018-02-14T06:15:40.657Z,32.4
2018-02-14T06:16:41.298Z,31.7
2018-02-14T06:17:41.940Z,30.3
2018-02-14T06:18:42.580Z,30.5
2018-02-14T06:19:43.224Z,30.1
2018-02-14T06:20:43.864Z,29.3
2018-02-14T06:21:44.507Z,29.5
2018-02-14T06:22:45.146Z,29.2
2018-02-14T06:23:45.788Z,29.0
2018-02-14T06:24:46.428Z,28.8
2018-02-14T06:25:47.075Z,28.5
2018-02-14T06:26:47.716Z,28.3
2018-02-14T06:27:48.460Z,28.2
2018-02-14T06:28:49.100Z,28.0
2018-02-14T06:29:49.741Z,28.2
2018-02-14T06:30:50.381Z,27.9
2018-02-14T06:31:51.025Z,27.8
2018-02-14T06:32:51.662Z,28.2
2018-02-14T06:33:52.304Z,27.9
2018-02-14T06:34:52.942Z,27.7
2018-02-14T06:35:53.584Z,27.6
2018-02-14T06:36:54.224Z,27.5
2018-02-14T06:37:54.868Z,27.4
2018-02-14T06:38:55.509Z,27.4
2018-02-14T06:39:56.150Z,27.4
2018-02-14T06:40:56.892Z,27.5
2018-02-14T06:41:57.683Z,27.5
2018-02-14T06:42:58.325Z,27.1
2018-02-14T06:43:58.965Z,27.6
2018-02-14T06:44:59.605Z,27.0
2018-02-14T06:46:00.248Z,26.9
2018-02-14T06:47:00.886Z,26.9
2018-02-14T06:48:01.528Z,27.0
2018-02-14T06:49:02.169Z,26.7
2018-02-14T06:50:02.810Z,26.8
2018-02-14T06:51:03.454Z,26.9
2018-02-14T06:52:04.246Z,26.8
2018-02-14T06:53:04.890Z,26.8
2018-02-14T06:54:05.528Z,27.0
2018-02-14T06:55:06.168Z,26.9
2018-02-14T06:56:06.812Z,26.8
2018-02-14T06:57:07.453Z,26.8
2018-02-14T06:58:08.096Z,27.0
2018-02-14T06:59:08.738Z,26.8
2018-02-14T07:00:09.382Z,26.9
2018-02-14T07:01:10.023Z,26.9
2018-02-14T07:02:10.666Z,26.9
2018-02-14T07:03:11.305Z,27.0
2018-02-14T07:04:11.948Z,26.6
2018-02-14T07:05:12.739Z,26.9
2018-02-14T07:06:13.380Z,26.8
2018-02-14T07:07:14.123Z,26.9
2018-02-14T07:08:14.864Z,26.4
2018-02-14T07:09:15.505Z,26.4
2018-02-14T07:10:16.301Z,26.7
2018-02-14T07:11:17.042Z,26.3
2018-02-14T07:12:17.732Z,26.3
2018-02-14T07:13:18.528Z,26.4
2018-02-14T07:14:19.167Z,26.3
2018-02-14T07:15:19.807Z,26.2
2018-02-14T07:16:20.448Z,26.3
2018-02-14T07:17:21.092Z,26.3
2018-02-14T07:18:21.732Z,26.2
2018-02-14T07:19:22.376Z,26.3
2018-02-14T07:20:23.018Z,26.2
2018-02-14T07:21:23.661Z,26.3
2018-02-14T07:22:24.302Z,26.2
2018-02-14T07:23:24.945Z,26.3
2018-02-14T07:24:25.587Z,26.3
2018-02-14T07:25:26.230Z,26.2
2018-02-14T07:26:26.872Z,26.1
2018-02-14T07:27:27.515Z,26.3
2018-02-14T07:28:28.306Z,26.2
2018-02-14T07:29:28.948Z,26.2
2018-02-14T07:30:29.591Z,26.3
2018-02-14T07:31:30.384Z,26.3
2018-02-14T07:32:31.027Z,26.6
2018-02-14T07:33:31.670Z,26.6
2018-02-14T07:34:32.311Z,26.3
2018-02-14T07:35:32.954Z,26.5
2018-02-14T07:36:33.700Z,26.3
2018-02-14T07:37:34.438Z,26.5
2018-02-14T07:38:35.180Z,26.3
2018-02-14T07:39:35.923Z,26.6
2018-02-14T07:40:36.563Z,26.4
2018-02-14T07:41:37.355Z,26.0
2018-02-14T07:42:37.996Z,26.2
2018-02-14T07:43:38.773Z,26.4
2018-02-14T07:44:39.425Z,25.7
2018-02-14T07:45:40.069Z,26.3
2018-02-14T07:46:40.709Z,26.2
2018-02-14T07:47:41.352Z,26.2
2018-02-14T07:48:41.994Z,26.3
2018-02-14T07:49:42.736Z,26.3
2018-02-14T07:50:43.379Z,26.3
2018-02-14T07:51:44.020Z,25.8
2018-02-14T07:52:44.665Z,25.8
2018-02-14T07:53:45.312Z,26.1
2018-02-14T07:54:46.054Z,26.1
2018-02-14T07:55:46.695Z,26.0
2018-02-14T07:56:47.337Z,25.9
2018-02-14T07:57:47.976Z,25.8
2018-02-14T07:58:48.616Z,26.0
2018-02-14T07:59:49.258Z,26.0
2018-02-14T08:00:49.900Z,25.9
2018-02-14T08:01:50.542Z,26.0
2018-02-14T08:02:51.186Z,26.0
2018-02-14T08:03:51.825Z,25.8
2018-02-14T08:04:52.568Z,26.2
2018-02-14T08:05:53.209Z,26.2
2018-02-14T08:06:53.896Z,25.9
2018-02-14T08:07:54.535Z,25.7
2018-02-14T08:08:55.175Z,25.9
2018-02-14T08:09:55.816Z,26.0
2018-02-14T08:10:56.459Z,26.0
2018-02-14T08:11:57.255Z,26.1
2018-02-14T08:12:57.996Z,26.1
2018-02-14T08:13:58.736Z,26.1
2018-02-14T08:14:59.427Z,26.0
2018-02-14T08:16:00.069Z,25.9
2018-02-14T08:17:00.738Z,25.9
2018-02-14T08:18:01.364Z,26.1
2018-02-14T08:19:02.204Z,26.1
2018-02-14T08:20:02.844Z,25.8
2018-02-14T08:21:03.487Z,26.0
2018-02-14T08:22:04.129Z,25.8
2018-02-14T08:23:04.770Z,25.8
2018-02-14T08:24:05.414Z,25.9
2018-02-14T08:25:06.054Z,25.9
2018-02-14T08:26:06.796Z,25.7
2018-02-14T08:27:07.438Z,26.0
2018-02-14T08:28:08.081Z,26.2
2018-02-14T08:29:08.723Z,25.8
2018-02-14T08:30:09.366Z,26.0
2018-02-14T08:31:10.007Z,26.4
2018-02-14T08:32:10.674Z,26.5
2018-02-14T08:33:11.415Z,26.4
2018-02-14T08:34:12.056Z,26.5
2018-02-14T08:35:12.696Z,26.5
2018-02-14T08:36:13.336Z,26.6
2018-02-14T08:37:14.079Z,26.4
2018-02-14T08:38:14.820Z,26.3
2018-02-14T08:39:15.461Z,26.6
2018-02-14T08:40:16.102Z,26.6
2018-02-14T08:41:16.844Z,26.4
2018-02-14T08:42:17.487Z,26.3
2018-02-14T08:43:18.231Z,26.4
2018-02-14T08:44:18.873Z,26.5
2018-02-14T08:45:19.516Z,26.4
2018-02-14T08:46:20.160Z,26.3
2018-02-14T08:47:20.802Z,26.4
2018-02-14T08:48:21.445Z,26.5
2018-02-14T08:49:22.088Z,26.6
2018-02-14T08:50:22.730Z,26.4
2018-02-14T08:51:23.372Z,26.3
2018-02-14T08:52:24.013Z,26.4
2018-02-14T08:53:24.653Z,26.4
2018-02-14T08:54:25.395Z,26.3
2018-02-14T08:55:26.036Z,26.4
2018-02-14T08:56:26.679Z,26.3
2018-02-14T08:57:27.323Z,26.3
2018-02-14T08:58:27.966Z,26.3
2018-02-14T08:59:28.607Z,26.2
2018-02-14T09:00:29.249Z,26.3
2018-02-14T09:01:29.991Z,26.3
2018-02-14T09:02:30.634Z,26.2
2018-02-14T09:03:31.275Z,26.3
2018-02-14T09:04:31.917Z,26.2
2018-02-14T09:05:32.562Z,26.3
2018-02-14T09:06:33.202Z,26.4
2018-02-14T09:07:33.844Z,26.6
2018-02-14T09:08:34.487Z,26.6
2018-02-14T09:09:35.279Z,26.6
2018-02-14T09:10:35.920Z,26.2
2018-02-14T09:11:36.562Z,26.4
2018-02-14T09:12:37.304Z,26.4
2018-02-14T09:13:38.097Z,26.4
2018-02-14T09:14:38.839Z,26.4
2018-02-14T09:15:39.583Z,26.5
2018-02-14T09:16:40.231Z,26.5
2018-02-14T09:17:40.874Z,26.4
2018-02-14T09:18:41.518Z,26.3
2018-02-14T09:19:42.156Z,26.3
2018-02-14T09:20:42.798Z,26.2
2018-02-14T09:21:43.440Z,26.4
2018-02-14T09:22:44.080Z,26.6
2018-02-14T09:23:44.822Z,26.3
2018-02-14T09:24:45.463Z,26.5
2018-02-14T09:25:46.205Z,26.4
2018-02-14T09:26:46.845Z,25.9
2018-02-14T09:27:47.490Z,25.8
2018-02-14T09:28:48.134Z,26.0
2018-02-14T09:29:48.879Z,25.9
2018-02-14T09:30:49.523Z,25.9
2018-02-14T09:31:50.166Z,25.8
2018-02-14T09:32:50.813Z,25.7
2018-02-14T09:33:51.452Z,25.2
2018-02-14T09:34:52.096Z,25.3
2018-02-14T09:35:52.741Z,25.3
2018-02-14T09:36:53.484Z,25.0
2018-02-14T09:37:54.130Z,25.3
2018-02-14T09:38:54.872Z,25.1
2018-02-14T09:39:55.515Z,25.1
2018-02-14T09:40:56.257Z,25.3
2018-02-14T09:41:56.898Z,25.1
2018-02-14T09:42:57.543Z,25.1
2018-02-14T09:43:58.186Z,24.9
2018-02-14T09:44:58.830Z,25.2
2018-02-14T09:45:59.473Z,24.9
2018-02-14T09:47:00.117Z,24.6
2018-02-14T09:48:00.760Z,24.4
2018-02-14T09:49:01.403Z,24.9
2018-02-14T09:50:02.046Z,25.0
2018-02-14T09:51:02.689Z,24.9
2018-02-14T09:52:03.333Z,24.9
2018-02-14T09:53:03.981Z,24.8
2018-02-14T09:54:04.772Z,24.5
2018-02-14T09:55:05.415Z,24.3
2018-02-14T09:56:06.061Z,24.6
2018-02-14T09:57:06.705Z,24.6
2018-02-14T09:58:07.348Z,24.7
2018-02-14T09:59:07.991Z,24.3
2018-02-14T10:00:08.648Z,24.2
2018-02-14T10:01:09.295Z,24.2
2018-02-14T10:02:09.925Z,24.3
2018-02-14T10:03:10.568Z,24.6
2018-02-14T10:04:11.221Z,24.5
2018-02-14T10:05:11.970Z,24.5
2018-02-14T10:06:12.608Z,24.3
2018-02-14T10:07:13.252Z,24.4
2018-02-14T10:08:13.897Z,24.5
2018-02-14T10:09:14.541Z,24.7
2018-02-14T10:10:15.186Z,24.6
2018-02-14T10:11:15.932Z,24.4
2018-02-14T10:12:16.573Z,24.4
2018-02-14T10:13:17.318Z,24.4
2018-02-14T10:14:18.112Z,24.4
2018-02-14T10:15:18.755Z,24.4
2018-02-14T10:16:19.399Z,24.2
2018-02-14T10:17:20.143Z,24.1
2018-02-14T10:18:20.789Z,24.1
2018-02-14T10:19:21.434Z,24.0
2018-02-14T10:20:22.080Z,24.0
2018-02-14T10:21:22.825Z,24.3
2018-02-14T10:22:23.472Z,24.3
2018-02-14T10:23:24.122Z,24.4
2018-02-14T10:24:24.766Z,24.1
2018-02-14T10:25:25.412Z,24.0
2018-02-14T10:26:26.359Z,23.8
2018-02-14T10:27:27.003Z,23.9
2018-02-14T10:28:27.647Z,23.6
2018-02-14T10:29:28.292Z,23.6
2018-02-14T10:30:28.937Z,23.7
2018-02-14T10:31:29.582Z,23.7
2018-02-14T10:32:30.327Z,23.4
2018-02-14T10:33:30.973Z,22.9
2018-02-14T10:34:31.620Z,23.1
2018-02-14T10:35:32.266Z,23.4
2018-02-14T10:36:33.065Z,22.9
2018-02-14T10:37:33.711Z,23.0
2018-02-14T10:38:34.454Z,22.6
2018-02-14T10:39:35.102Z,22.9
2018-02-14T10:40:35.850Z,21.8
2018-02-14T10:41:36.599Z,22.0
2018-02-14T10:42:37.344Z,21.8
2018-02-14T10:43:37.991Z,21.6
2018-02-14T10:44:38.638Z,21.6
2018-02-14T10:45:39.284Z,20.8
2018-02-14T10:46:39.934Z,20.9
2018-02-14T10:47:40.955Z,20.5
2018-02-14T10:48:41.581Z,20.2
2018-02-14T10:49:42.230Z,19.8
2018-02-14T10:50:42.878Z,19.6
2018-02-14T10:51:43.527Z,19.6
2018-02-14T10:52:44.173Z,19.3
2018-02-14T10:53:44.820Z,19.0
2018-02-14T10:54:45.468Z,18.8
2018-02-14T10:55:46.116Z,19.2
2018-02-14T10:56:46.762Z,18.8
2018-02-14T10:57:47.411Z,18.6
2018-02-14T10:58:48.058Z,18.1
2018-02-14T10:59:48.807Z,18.1
2018-02-14T11:00:49.457Z,18.2
2018-02-14T11:01:50.106Z,17.7
2018-02-14T11:02:50.755Z,18.0
2018-02-14T11:03:51.652Z,17.9
2018-02-14T11:04:52.300Z,18.1
2018-02-14T11:05:52.948Z,17.9
2018-02-14T11:06:53.596Z,17.9
2018-02-14T11:07:54.244Z,17.7
2018-02-14T11:08:54.992Z,17.7
2018-02-14T11:09:55.639Z,17.8
2018-02-14T11:10:56.289Z,18.4
2018-02-14T11:11:56.938Z,18.4
2018-02-14T11:12:57.684Z,18.4
2018-02-14T11:13:58.429Z,18.5
2018-02-14T11:14:59.228Z,19.0
2018-02-14T11:15:59.874Z,18.8
2018-02-14T11:17:00.520Z,19.1
2018-02-14T11:18:01.172Z,19.1
2018-02-14T11:19:01.813Z,19.3
2018-02-14T11:20:02.612Z,19.9
2018-02-14T11:21:03.259Z,19.4
2018-02-14T11:22:03.903Z,19.9
2018-02-14T11:23:04.551Z,20.1
2018-02-14T11:24:05.202Z,19.9
2018-02-14T11:25:05.849Z,20.5
2018-02-14T11:26:06.493Z,20.3
2018-02-14T11:27:07.139Z,20.8
2018-02-14T11:28:07.884Z,20.5
2018-02-14T11:29:08.530Z,20.7
2018-02-14T11:30:09.174Z,20.6
2018-02-14T11:31:09.821Z,20.5
2018-02-14T11:32:10.523Z,20.6
2018-02-14T11:33:11.168Z,20.8
2018-02-14T11:34:11.812Z,20.8
2018-02-14T11:35:12.459Z,21.1
2018-02-14T11:36:13.104Z,21.2
2018-02-14T11:37:13.845Z,21.1
2018-02-14T11:38:14.840Z,21.4
2018-02-14T11:39:15.588Z,21.5
2018-02-14T11:40:16.333Z,21.5
2018-02-14T11:41:16.981Z,21.2
2018-02-14T11:42:17.625Z,21.1
2018-02-14T11:43:18.269Z,21.6
2018-02-14T11:44:18.913Z,21.6
2018-02-14T11:45:19.563Z,21.6
2018-02-14T11:46:20.208Z,21.9
2018-02-14T11:47:20.883Z,21.9
2018-02-14T11:48:21.495Z,21.7
2018-02-14T11:49:22.154Z,21.9
2018-02-14T11:50:22.782Z,21.7
2018-02-14T11:51:23.425Z,21.9
2018-02-14T11:52:24.069Z,22.0
2018-02-14T11:53:24.717Z,22.1
2018-02-14T11:54:25.360Z,22.1
2018-02-14T11:55:26.010Z,22.7
2018-02-14T11:56:26.652Z,22.9
2018-02-14T11:57:27.298Z,22.8
2018-02-14T11:58:27.947Z,22.7
2018-02-14T11:59:28.694Z,23.1
2018-02-14T12:00:29.438Z,22.8
2018-02-14T12:01:30.082Z,23.2
2018-02-14T12:02:30.727Z,23.0
2018-02-14T12:03:31.371Z,22.9
2018-02-14T12:04:32.116Z,23.3
2018-02-14T12:05:32.764Z,23.2
2018-02-14T12:06:33.408Z,23.0
2018-02-14T12:07:34.052Z,22.9
2018-02-14T12:08:34.695Z,22.9
2018-02-14T12:09:35.338Z,22.9
2018-02-14T12:10:36.532Z,23.6
2018-02-14T12:11:37.277Z,23.8
2018-02-14T12:12:38.025Z,23.6
2018-02-14T12:13:38.664Z,23.7
2018-02-14T12:14:39.307Z,24.0
2018-02-14T12:15:39.950Z,23.9
2018-02-14T12:16:40.593Z,23.8
2018-02-14T12:17:41.339Z,24.2
2018-02-14T12:18:41.982Z,24.4
2018-02-14T12:19:42.625Z,24.1
2018-02-14T12:20:43.270Z,24.4
2018-02-14T12:21:43.915Z,24.4
2018-02-14T12:22:44.559Z,24.3
2018-02-14T12:23:45.205Z,24.3
2018-02-14T12:24:45.847Z,24.2
2018-02-14T12:25:46.591Z,24.9
2018-02-14T12:26:47.335Z,24.8
2018-02-14T12:27:48.079Z,25.1
2018-02-14T12:28:48.722Z,24.9
2018-02-14T12:29:49.367Z,25.1
2018-02-14T12:30:50.014Z,25.0
2018-02-14T12:31:50.654Z,24.9
2018-02-14T12:32:51.298Z,25.0
2018-02-14T12:33:51.940Z,25.1
2018-02-14T12:34:52.582Z,25.1
2018-02-14T12:35:53.227Z,24.9
2018-02-14T12:36:54.122Z,25.0
2018-02-14T12:37:54.764Z,24.9
2018-02-14T12:38:55.510Z,24.9
2018-02-14T12:39:56.154Z,24.9
2018-02-14T12:40:56.799Z,24.9
2018-02-14T12:41:57.442Z,25.1
2018-02-14T12:42:58.086Z,24.9
2018-02-14T12:43:59.078Z,25.0
2018-02-14T12:44:59.723Z,24.9
2018-02-14T12:46:00.365Z,25.1
2018-02-14T12:47:01.010Z,25.0
2018-02-14T12:48:01.660Z,25.1
2018-02-14T12:49:02.300Z,24.8
2018-02-14T12:50:02.945Z,24.8
2018-02-14T12:51:03.789Z,25.1
2018-02-14T12:52:05.006Z,25.0
2018-02-14T12:53:05.599Z,25.1
2018-02-14T12:54:06.240Z,25.1
2018-02-14T12:55:06.884Z,25.1
2018-02-14T12:56:07.527Z,24.8
2018-02-14T12:57:08.168Z,25.0
2018-02-14T12:58:08.811Z,25.0
2018-02-14T12:59:09.453Z,24.9
2018-02-14T13:00:10.098Z,24.9
2018-02-14T13:01:10.742Z,25.1
2018-02-14T13:02:11.386Z,24.9
2018-02-14T13:03:12.027Z,24.9
2018-02-14T13:04:12.672Z,25.0
2018-02-14T13:05:13.316Z,24.9
2018-02-14T13:06:13.960Z,24.9
2018-02-14T13:07:14.604Z,25.0
2018-02-14T13:08:15.248Z,24.9
2018-02-14T13:09:15.893Z,25.4
2018-02-14T13:10:16.637Z,25.3
2018-02-14T13:11:17.381Z,25.2
2018-02-14T13:12:18.036Z,25.3
2018-02-14T13:13:18.678Z,25.2
2018-02-14T13:14:19.316Z,25.3
2018-02-14T13:15:20.059Z,25.1
2018-02-14T13:16:20.704Z,24.9
2018-02-14T13:17:21.349Z,24.9
2018-02-14T13:18:21.990Z,24.9
2018-02-14T13:19:22.737Z,25.0
2018-02-14T13:20:23.478Z,25.0
2018-02-14T13:21:24.221Z,24.8
2018-02-14T13:22:24.864Z,25.3
2018-02-14T13:23:25.608Z,24.9
2018-02-14T13:24:26.451Z,25.1
2018-02-14T13:25:27.194Z,25.3
2018-02-14T13:26:27.836Z,25.3
2018-02-14T13:27:28.478Z,25.3